createdAt,value
2023-01-09T00:02:50.458Z,88.17
2023-01-09T00:07:08.208Z,88.28
2023-01-09T00:11:25.891Z,88.31
2023-01-09T00:15:43.589Z,88.32
2023-01-09T00:20:01.105Z,88.33
2023-01-09T00:24:18.906Z,88.20
2023-01-09T00:28:36.669Z,88.23
2023-01-09T00:32:55.592Z,88.30
2023-01-09T00:37:13.297Z,88.35
2023-01-09T00:41:44.670Z,89.12
2023-01-09T00:46:06.709Z,90.28
2023-01-09T00:50:30.925Z,90.17
2023-01-09T00:54:48.571Z,90.60
2023-01-09T00:59:07.466Z,91.22
2023-01-09T01:03:25.448Z,91.32
2023-01-09T01:07:43.493Z,91.50
2023-01-09T01:12:07.234Z,91.53
2023-01-09T01:16:25.703Z,91.63
2023-01-09T01:20:45.385Z,92.11
2023-01-09T01:25:04.559Z,92.25
2023-01-09T01:29:22.439Z,92.18
2023-01-09T01:33:39.938Z,92.64
2023-01-09T01:37:57.920Z,92.77
2023-01-09T01:42:15.486Z,92.95
2023-01-09T01:46:34.845Z,92.74
2023-01-09T01:51:05.244Z,92.78
2023-01-09T01:55:23.585Z,93.14
2023-01-09T01:59:50.623Z,93.09
2023-01-09T02:04:08.665Z,92.93
2023-01-09T02:08:26.635Z,92.88
2023-01-09T02:12:44.133Z,92.76
2023-01-09T02:17:17.615Z,92.77
2023-01-09T02:22:27.828Z,92.76
2023-01-09T02:27:01.801Z,92.84
2023-01-09T02:31:41.480Z,92.66
2023-01-09T02:36:57.956Z,92.90
2023-01-09T02:41:26.721Z,93.15
2023-01-09T02:45:44.448Z,93.25
2023-01-09T02:50:06.275Z,93.33
2023-01-09T02:54:47.325Z,93.35
2023-01-09T02:59:39.307Z,93.42
2023-01-09T03:04:25.321Z,93.40
2023-01-09T03:08:53.554Z,93.46
2023-01-09T03:13:15.663Z,93.40
2023-01-09T03:17:38.923Z,93.31
2023-01-09T03:21:57.654Z,93.44
2023-01-09T03:26:15.375Z,93.43
2023-01-09T03:30:34.855Z,93.48
2023-01-09T03:34:52.566Z,93.64
2023-01-09T03:39:10.247Z,93.64
2023-01-09T03:43:27.971Z,93.68
2023-01-09T03:47:45.481Z,93.73
2023-01-09T03:52:03.322Z,93.80
2023-01-09T03:56:20.835Z,93.86
2023-01-09T04:00:39.683Z,93.92
2023-01-09T04:04:57.191Z,93.91
2023-01-09T04:09:15.030Z,93.90
2023-01-09T04:13:32.546Z,93.89
2023-01-09T04:17:50.075Z,93.87
2023-01-09T04:22:07.667Z,93.90
2023-01-09T04:26:25.403Z,93.96
2023-01-09T04:30:43.055Z,93.98
2023-01-09T04:35:00.552Z,94.01
2023-01-09T04:39:18.148Z,94.01
2023-01-09T04:43:35.697Z,94.01
2023-01-09T04:47:53.569Z,94.08
2023-01-09T04:52:11.040Z,94.09
2023-01-09T04:56:28.774Z,94.13
2023-01-09T05:00:46.441Z,94.12
2023-01-09T05:05:11.808Z,94.11
2023-01-09T05:09:29.847Z,94.08
2023-01-09T05:13:47.610Z,94.01
2023-01-09T05:18:05.264Z,94.02
2023-01-09T05:22:22.859Z,93.98
2023-01-09T05:26:40.571Z,93.92
2023-01-09T05:30:58.351Z,93.89
2023-01-09T05:35:16.043Z,93.78
2023-01-09T05:39:33.565Z,93.67
2023-01-09T05:43:51.228Z,93.45
2023-01-09T05:48:08.695Z,93.26
2023-01-09T05:52:26.388Z,93.07
2023-01-09T05:56:43.927Z,92.61
2023-01-09T06:01:01.735Z,92.30
2023-01-09T06:05:19.302Z,91.95
2023-01-09T06:09:37.257Z,92.09
2023-01-09T06:13:54.905Z,91.93
2023-01-09T06:18:12.558Z,91.66
2023-01-09T06:22:30.327Z,91.46
2023-01-09T06:26:48.197Z,91.11
2023-01-09T06:31:06.347Z,90.65
2023-01-09T06:35:24.159Z,90.53
2023-01-09T06:39:41.938Z,90.34
2023-01-09T06:43:59.424Z,90.44
2023-01-09T06:48:17.205Z,90.26
2023-01-09T06:52:34.882Z,90.24
2023-01-09T06:56:52.546Z,90.49
2023-01-09T07:01:10.393Z,90.42
2023-01-09T07:05:28.032Z,90.10
2023-01-09T07:09:45.949Z,89.89
2023-01-09T07:14:03.439Z,89.78
2023-01-09T07:18:21.160Z,89.36
2023-01-09T07:22:38.672Z,89.45
2023-01-09T07:26:56.306Z,89.19
2023-01-09T07:31:13.823Z,88.96
2023-01-09T07:35:31.532Z,88.88
2023-01-09T07:39:49.134Z,88.79
2023-01-09T07:44:09.561Z,88.53
2023-01-09T07:48:28.337Z,88.80
2023-01-09T07:52:46.860Z,89.01
2023-01-09T07:57:04.617Z,89.10
2023-01-09T08:01:22.563Z,88.63
2023-01-09T08:05:40.350Z,88.48
2023-01-09T08:09:58.020Z,88.27
2023-01-09T08:14:15.805Z,88.02
2023-01-09T08:18:33.351Z,87.91
2023-01-09T08:22:52.320Z,88.05
2023-01-09T08:27:10.176Z,87.84
2023-01-09T08:31:28.000Z,88.40
2023-01-09T08:35:45.976Z,88.02
2023-01-09T08:40:03.904Z,87.47
2023-01-09T08:44:40.118Z,87.68
2023-01-09T08:48:57.788Z,87.69
2023-01-09T08:53:15.641Z,88.16
2023-01-09T08:57:33.443Z,86.66
2023-01-09T09:01:51.136Z,86.74
2023-01-09T09:06:08.845Z,85.79
2023-01-09T09:10:29.115Z,84.94
2023-01-09T09:15:07.301Z,84.89
2023-01-09T09:19:24.854Z,83.59
2023-01-09T09:23:42.518Z,81.63
2023-01-09T09:28:01.375Z,82.19
2023-01-09T09:32:19.173Z,81.99
2023-01-09T09:36:37.038Z,81.46
2023-01-09T09:41:42.437Z,79.92
2023-01-09T09:46:29.037Z,80.65
2023-01-09T09:51:25.084Z,75.86
2023-01-09T09:55:43.686Z,74.15
2023-01-09T10:00:01.812Z,73.24
2023-01-09T10:04:23.847Z,72.62
2023-01-09T10:09:02.650Z,72.97
2023-01-09T10:13:43.253Z,74.01
2023-01-09T10:18:42.004Z,73.83
2023-01-09T10:23:44.774Z,72.91
2023-01-09T10:28:50.798Z,74.16
2023-01-09T10:33:41.111Z,75.38
2023-01-09T10:38:01.867Z,78.12
2023-01-09T10:42:36.706Z,78.57
2023-01-09T10:46:57.419Z,78.50
2023-01-09T10:51:25.514Z,80.13
2023-01-09T10:55:50.374Z,79.38
2023-01-09T11:00:17.532Z,79.31
2023-01-09T11:04:37.963Z,78.45
2023-01-09T11:08:59.147Z,79.19
2023-01-09T11:13:33.415Z,79.87
2023-01-09T11:17:52.318Z,80.09
2023-01-09T11:22:19.066Z,80.25
2023-01-09T11:26:36.576Z,81.56
2023-01-09T11:31:00.636Z,82.00
2023-01-09T11:35:27.277Z,82.48
2023-01-09T11:39:48.237Z,84.39
2023-01-09T11:44:06.101Z,85.85
2023-01-09T11:48:57.146Z,86.70
2023-01-09T11:53:20.861Z,86.81
2023-01-09T11:57:38.426Z,87.79
2023-01-09T12:02:25.585Z,87.62
2023-01-09T12:07:17.476Z,87.45
2023-01-09T12:11:43.124Z,87.45
2023-01-09T12:16:23.275Z,86.95
2023-01-09T12:21:25.722Z,86.26
2023-01-09T12:26:02.119Z,86.23
2023-01-09T12:30:30.984Z,86.08
2023-01-09T12:35:33.433Z,87.05
2023-01-09T12:40:29.160Z,87.12
2023-01-09T12:44:57.660Z,87.18
2023-01-09T12:49:35.928Z,86.49
2023-01-09T12:54:23.838Z,88.56
2023-01-09T12:59:01.927Z,89.39
2023-01-09T13:03:49.836Z,88.69
2023-01-09T13:08:28.421Z,87.65
2023-01-09T13:12:47.823Z,88.98
2023-01-09T13:17:14.528Z,88.66
2023-01-09T13:21:32.559Z,88.43
2023-01-09T13:25:57.724Z,87.76
2023-01-09T13:30:39.253Z,88.31
2023-01-09T13:35:01.634Z,88.77
2023-01-09T13:39:37.868Z,89.05
2023-01-09T13:44:02.296Z,89.46
2023-01-09T13:48:42.094Z,89.64
2023-01-09T13:53:19.839Z,88.23
2023-01-09T13:58:08.336Z,87.09
2023-01-09T14:02:41.692Z,86.90
2023-01-09T14:07:20.401Z,87.48
2023-01-09T14:11:38.227Z,87.57
2023-01-09T14:16:11.097Z,87.97
2023-01-09T14:20:36.953Z,88.00
2023-01-09T14:25:01.391Z,88.22
2023-01-09T14:29:44.841Z,88.37
2023-01-09T14:34:32.025Z,88.65
2023-01-09T14:39:04.232Z,89.02
2023-01-09T14:43:38.545Z,88.87
2023-01-09T14:48:02.776Z,88.93
2023-01-09T14:52:30.284Z,88.99
2023-01-09T14:56:48.399Z,89.26
2023-01-09T15:01:23.796Z,89.28
2023-01-09T15:05:45.538Z,88.80
2023-01-09T15:10:05.057Z,88.97
2023-01-09T15:14:40.264Z,89.24
2023-01-09T15:19:02.564Z,89.27
2023-01-09T15:23:26.377Z,89.41
2023-01-09T15:27:56.459Z,89.54
2023-01-09T15:32:29.344Z,89.57
2023-01-09T15:36:49.377Z,89.63
2023-01-09T15:41:12.171Z,89.80
2023-01-09T15:45:56.774Z,89.99
2023-01-09T15:50:18.000Z,90.18
2023-01-09T15:54:36.105Z,90.06
2023-01-09T15:58:55.227Z,90.20
2023-01-09T16:03:20.620Z,90.33
2023-01-09T16:07:46.766Z,90.59
2023-01-09T16:12:04.871Z,90.79
2023-01-09T16:16:31.409Z,90.80
2023-01-09T16:20:49.658Z,90.94
2023-01-09T16:25:35.096Z,90.94
2023-01-09T16:29:57.988Z,90.99
2023-01-09T16:34:16.687Z,90.97
2023-01-09T16:38:34.600Z,91.03
2023-01-09T16:43:07.542Z,91.19
2023-01-09T16:47:25.053Z,91.25
2023-01-09T16:51:43.650Z,91.18
2023-01-09T16:56:01.147Z,91.34
2023-01-09T17:00:21.298Z,91.36
2023-01-09T17:04:38.802Z,91.55
2023-01-09T17:08:56.992Z,91.78
2023-01-09T17:13:14.625Z,91.80
2023-01-09T17:17:32.278Z,91.87
2023-01-09T17:21:49.894Z,91.99
2023-01-09T17:26:31.540Z,91.97
2023-01-09T17:30:49.337Z,91.89
2023-01-09T17:35:07.366Z,91.86
2023-01-09T17:39:25.434Z,91.77
2023-01-09T17:43:44.513Z,91.71
2023-01-09T17:48:03.352Z,91.69
2023-01-09T17:52:22.263Z,91.74
2023-01-09T17:56:44.461Z,91.55
2023-01-09T18:01:02.275Z,91.05
2023-01-09T18:05:24.617Z,90.60
2023-01-09T18:09:43.669Z,90.53
2023-01-09T18:14:01.329Z,90.51
2023-01-09T18:18:20.331Z,90.42
2023-01-09T18:22:38.175Z,90.28
2023-01-09T18:26:55.889Z,90.13
2023-01-09T18:31:15.772Z,90.25
2023-01-09T18:35:34.566Z,90.42
2023-01-09T18:39:52.270Z,90.39
2023-01-09T18:44:09.813Z,90.47
2023-01-09T18:48:27.437Z,90.49
2023-01-09T18:52:44.933Z,90.47
2023-01-09T18:57:02.666Z,90.83
2023-01-09T19:01:20.217Z,91.15
2023-01-09T19:05:38.076Z,91.46
2023-01-09T19:09:55.682Z,91.20
2023-01-09T19:14:13.401Z,91.50
2023-01-09T19:18:35.415Z,91.63
2023-01-09T19:22:55.451Z,91.80
2023-01-09T19:27:13.200Z,92.05
2023-01-09T19:31:30.945Z,92.33
2023-01-09T19:35:49.345Z,92.39
2023-01-09T19:40:07.342Z,92.55
2023-01-09T19:44:25.333Z,92.68
2023-01-09T19:48:43.126Z,92.64
2023-01-09T19:53:00.650Z,92.78
2023-01-09T19:57:18.309Z,92.84
2023-01-09T20:01:39.592Z,92.88
2023-01-09T20:06:04.503Z,92.82
2023-01-09T20:10:22.132Z,92.72
2023-01-09T20:14:40.071Z,92.74
2023-01-09T20:19:00.826Z,92.97
2023-01-09T20:23:21.717Z,92.93
2023-01-09T20:27:39.172Z,92.93
2023-01-09T20:31:57.321Z,92.92
2023-01-09T20:36:15.718Z,92.93
2023-01-09T20:40:36.564Z,92.94
2023-01-09T20:44:54.216Z,92.93
2023-01-09T20:49:14.339Z,92.99
2023-01-09T20:53:31.829Z,92.99
2023-01-09T20:57:49.856Z,92.99
2023-01-09T21:02:14.714Z,93.03
2023-01-09T21:06:32.662Z,92.91
2023-01-09T21:10:57.342Z,93.13
2023-01-09T21:15:18.093Z,93.27
2023-01-09T21:19:35.601Z,93.36
2023-01-09T21:23:56.864Z,93.45
2023-01-09T21:28:17.645Z,93.42
2023-01-09T21:32:35.788Z,93.63
2023-01-09T21:36:53.843Z,93.80
2023-01-09T21:41:30.729Z,93.96
2023-01-09T21:46:07.019Z,94.01
2023-01-09T21:50:24.085Z,94.06
2023-01-09T21:54:42.096Z,94.02
2023-01-09T21:58:59.566Z,93.95
2023-01-09T22:03:19.295Z,93.94
2023-01-09T22:07:36.860Z,93.86
2023-01-09T22:11:54.705Z,93.77
2023-01-09T22:16:13.225Z,93.79
2023-01-09T22:20:31.041Z,93.80
2023-01-09T22:24:50.041Z,93.87
2023-01-09T22:29:07.701Z,93.83
2023-01-09T22:33:25.337Z,93.89
2023-01-09T22:37:43.123Z,93.90
2023-01-09T22:42:00.572Z,93.88
2023-01-09T22:46:18.214Z,93.87
2023-01-09T22:50:36.746Z,93.85
2023-01-09T22:54:57.274Z,93.84
2023-01-09T22:59:14.816Z,93.89
2023-01-09T23:03:32.809Z,93.96
2023-01-09T23:07:50.286Z,93.94
2023-01-09T23:12:08.267Z,93.84
2023-01-09T23:16:26.198Z,93.69
2023-01-09T23:20:58.018Z,93.69
2023-01-09T23:25:16.104Z,93.63
2023-01-09T23:29:33.698Z,93.67
2023-01-09T23:33:57.223Z,93.71
2023-01-09T23:38:15.568Z,93.74
2023-01-09T23:42:51.696Z,93.72
2023-01-09T23:47:08.956Z,93.71
2023-01-09T23:51:27.729Z,93.72
2023-01-09T23:55:45.131Z,93.69
